Boca Raton, FL (33431)

9:00 AM EST on December 20, 2014 (GMT -0500)
University Gardens | Change Station
CLOSE
Current Station
Personal Weather Station
Location: Boca Raton, FL
Elevation: 39 ft
Nearby Weather Stations

Elev 39 ft 26.39 °N, 80.09 °W | Updated 51 seconds ago

Clear
Clear
75.0 °F
Feels Like 77 °F
N
2.7
Wind Variable Wind from SE
Gusts 4.7 mph

Today
High -- | Low -- °F
--% Chance of Precip.
Yesterday
High -- | Low -- °F
Precip. -- in
7:03 AM 5:32 PM
Waning Crescent, 3% visible
Pressure 30.09 in
Visibility 10.0 miles
Clouds Clear
Heat Index 77 °F
Dew Point 63 °F
Humidity 67%
Rainfall 0.00 in
Snow Depth Not available.
UV 0 out of 12
Pollen 4.40 out of 12
Air Quality Not available.
Flu Activity Not available.
METAR KPMP 201253Z 13006KT 10SM CLR 22/14 A3009 RMK AO2 SLP190 T02170144

More Conditions Fewer Conditions

Pressure 30.09 in
Visibility 10.0 miles
Clouds Clear
Heat Index 77 °F
Dew Point 63 °F
Humidity 67%
Rainfall 0.00 in
Snow Depth Not available.
UV 0 out of 12
Pollen 4.40 out of 12
Air Quality Not available.
Flu Activity Not available.
METAR KPMP 201253Z 13006KT 10SM CLR 22/14 A3009 RMK AO2 SLP190 T02170144

More Conditions Fewer Conditions

10-Day Weather Forecast

Almanac

Astronomy

Dec. 20, 2014 Rise Set
Actual Time
Civil Twilight
Nautical Twilight
Astronomical Twilight
Moon
Length of Visible Light
Length of Day
Tomorrow will be .
, % of the Moon is Illuminated

Today's Extremes

State Highs State Lows

Community

WunderPhotos

Upload Photos

1,779,174 photos uploaded!

WunderBlogs® & News

Nearby

Air Quality

  Air Quality AQ Index Pollutant
Not available.

Snow Depth

Station Depth Elevation

Earthquake Activity

City Distance Mag. Time & Date
Minimum magnitude displayed is 2.5.

Coastal Water Temperatures

Place Temperature

Nearby Weather Stations